Latest Weather Observations for Moomba Airport

IDS60801

Issued at 10:05 pm CST Wednesday 23 April 2014 (issued every 30 minutes, with the page automatically refreshed every 10 minutes)

About weather observations | Map of weather stations | Latest weather observations for SA | Other Formats
Station Details ID: 017123 Name: MOOMBA AIRPORT Lat: -28.10 Lon: 140.20 Height: 37.8 m
Data from the previous 72 hours. | See also: Recent months at Moomba Airport
Date/Time
CST
Temp
°C
App
Temp
°C
Dew
Point
Rel
Hum
%
Delta-T
°C
Wind Press
QNH
hPa
Press
MSL
hPa
Rain
since 9 am
mm
Dir
 
Spd
km/h
Gust
km/h
Spd
kts
Gust
kts
23/10:00pm 20.7 17.0 4.7 35 7.8 WSW 13 15 7 8 1014.9 - 0.0
23/09:30pm 20.6 17.2 4.2 34 7.9 WSW 11 13 6 7 1014.8 - 0.0
23/09:00pm 21.4 17.7 4.5 33 8.3 W 13 17 7 9 1014.6 1014.4 0.0
23/08:30pm 22.3 19.7 4.4 31 8.8 WSW 7 7 4 4 1014.2 - 0.0
23/08:00pm 23.0 20.5 4.5 30 9.1 SSW 7 9 4 5 1013.8 - 0.0
23/07:30pm 23.7 21.1 4.1 28 9.7 SSW 7 9 4 5 1013.6 - 0.0
23/07:00pm 24.9 21.9 4.1 26 10.3 SSW 9 11 5 6 1013.2 - 0.0
23/06:30pm 26.4 23.0 4.2 24 11.2 SW 11 13 6 7 1013.1 - 0.0
23/06:00pm 27.8 24.2 4.8 23 11.8 SW 13 15 7 8 1012.8 1012.6 0.0
23/05:30pm 29.6 24.7 4.3 20 13.0 SW 19 26 10 14 1012.6 - 0.0
23/05:00pm 30.6 25.8 2.8 17 14.0 SW 17 24 9 13 1012.4 - 0.0
23/04:30pm 31.2 26.5 3.3 17 14.2 WSW 17 24 9 13 1012.2 - 0.0
23/04:00pm 31.6 26.6 3.6 17 14.4 WSW 19 26 10 14 1012.2 - 0.0
23/03:30pm 32.0 27.3 3.1 16 14.8 WSW 17 24 9 13 1012.1 - 0.0
23/03:00pm 32.9 29.1 1.9 14 15.6 W 11 19 6 10 1012.2 1012.0 0.0
23/02:30pm 32.4 28.6 1.5 14 15.4 W 11 17 6 9 1012.3 - 0.0
23/02:00pm 32.2 29.2 2.3 15 15.1 W 7 17 4 9 1012.5 - 0.0
23/01:30pm 31.7 28.1 2.8 16 14.7 W 11 17 6 9 1012.7 - 0.0
23/01:00pm 32.3 28.4 3.3 16 14.9 NNW 13 20 7 11 1013.0 - 0.0
23/12:30pm 31.1 26.9 4.0 18 14.0 WNW 15 22 8 12 1013.6 - 0.0
23/12:00pm 31.2 27.2 4.9 19 13.8 W 15 20 8 11 1014.0 1013.8 0.0
23/11:30am 30.5 27.2 4.3 19 13.5 W 11 17 6 9 1014.5 - 0.0
23/11:00am 30.9 28.4 4.6 19 13.7 NW 7 15 4 8 1014.8 - 0.0
23/10:30am 30.0 26.7 4.6 20 13.1 N 11 17 6 9 1015.1 - 0.0
23/10:00am 29.1 25.8 4.6 21 12.6 NNE 11 17 6 9 1015.1 - 0.0
23/09:30am 27.8 23.9 3.5 21 12.2 ENE 13 17 7 9 1015.1 - 0.0
23/09:00am 26.2 22.2 2.8 22 11.4 E 13 17 7 9 1015.1 1014.9 0.0
23/08:30am 23.4 19.7 2.3 25 10.0 E 11 17 6 9 1015.2 - 0.0
23/08:00am 20.5 16.8 2.3 30 8.5 E 11 13 6 7 1015.0 - 0.0
23/07:30am 18.7 15.8 2.5 34 7.5 E 7 9 4 5 1014.8 - 0.0
23/07:00am 16.3 13.5 2.3 39 6.3 SSE 6 9 3 5 1014.7 - 0.0
23/06:30am 14.9 11.5 1.8 41 5.8 ESE 9 11 5 6 1014.5 - 0.0
23/06:00am 14.9 11.0 1.4 40 5.9 E 11 11 6 6 1014.4 1014.2 0.0
23/05:30am 15.5 12.4 1.6 39 6.1 E 7 9 4 5 1014.2 - 0.0
23/05:00am 15.4 11.6 1.9 40 6.0 E 11 13 6 7 1014.1 - 0.0
23/04:30am 15.0 11.2 1.9 41 5.8 E 11 13 6 7 1014.1 - 0.0
23/04:00am 15.1 11.0 2.0 41 5.8 E 13 15 7 8 1014.1 - 0.0
23/03:30am 15.4 11.3 2.2 41 5.9 E 13 15 7 8 1014.2 - 0.0
23/03:00am 15.7 11.6 2.2 40 6.0 E 13 15 7 8 1014.3 1014.1 0.0
23/02:30am 17.1 13.8 2.3 37 6.7 ESE 9 11 5 6 1014.5 - 0.0
23/02:00am 17.2 14.0 2.8 38 6.6 ESE 9 11 5 6 1014.6 - 0.0
23/01:30am 18.1 14.8 2.4 35 7.2 ESE 9 9 5 5 1014.9 - 0.0
23/01:00am 20.6 17.8 3.3 32 8.2 SE 7 13 4 7 1015.1 - 0.0
23/12:30am 19.9 16.7 3.2 33 7.9 S 9 13 5 7 1015.3 - 0.0
23/12:00am 19.0 16.1 2.4 33 7.6 S 7 11 4 6 1015.5 1015.3 0.0
 
Date/Time
CST
Temp
°C
App
Temp
°C
Dew
Point
Rel
Hum
%
Delta-T
°C
Wind Press
QNH
hPa
Press
MSL
hPa
Rain
since 9 am
mm
Dir
 
Spd
km/h
Gust
km/h
Spd
kts
Gust
kts
22/11:30pm 20.8 17.9 2.6 30 8.5 S 7 11 4 6 1015.5 - 0.0
22/11:00pm 20.4 16.8 3.2 32 8.1 S 11 13 6 7 1015.5 - 0.0
22/10:30pm 19.5 16.8 2.4 32 7.9 S 6 7 3 4 1015.5 - 0.0
22/10:00pm 21.6 18.0 2.8 29 8.9 S 11 15 6 8 1015.5 - 0.0
22/09:30pm 20.2 17.2 2.1 30 8.4 SSW 7 9 4 5 1015.6 - 0.0
22/09:00pm 22.7 18.7 2.8 27 9.5 S 13 17 7 9 1015.5 1015.3 0.0
22/08:30pm 22.7 19.1 2.8 27 9.5 S 11 13 6 7 1015.3 - 0.0
22/08:00pm 23.1 19.4 2.6 26 9.8 S 11 13 6 7 1015.1 - 0.0
22/07:30pm 23.8 20.1 2.6 25 10.2 SSW 11 15 6 8 1014.8 - 0.0
22/07:00pm 24.8 21.1 2.3 23 10.8 S 11 13 6 7 1014.5 - 0.0
22/06:30pm 25.8 21.7 2.5 22 11.3 SSW 13 15 7 8 1014.3 - 0.0
22/06:00pm 26.9 23.2 2.1 20 12.0 SSW 11 13 6 7 1014.0 1013.8 0.0
22/05:30pm 28.8 25.1 2.1 18 13.1 SSW 11 17 6 9 1013.8 - 0.0
22/05:00pm 29.7 26.0 2.1 17 13.7 S 11 17 6 9 1013.8 - 0.0
22/04:30pm 30.0 25.8 1.5 16 14.0 S 13 17 7 9 1013.8 - 0.0
22/04:00pm 30.3 26.5 1.7 16 14.1 SSE 11 17 6 9 1013.8 - 0.0
22/03:30pm 30.6 26.4 1.9 16 14.2 SW 13 19 7 10 1013.8 - 0.0
22/03:00pm 30.8 27.4 2.1 16 14.3 S 9 13 5 7 1013.9 1013.7 0.0
22/02:30pm 30.5 27.1 1.9 16 14.2 S 9 13 5 7 1014.0 - 0.0
22/02:00pm 31.2 28.1 1.5 15 14.7 WNW 7 13 4 7 1014.1 - 0.0
22/01:30pm 30.7 27.6 1.1 15 14.5 SSW 7 20 4 11 1014.5 - 0.0
22/01:00pm 30.4 27.0 1.8 16 14.1 NNW 9 15 5 8 1015.0 - 0.0
22/12:30pm 30.5 27.6 2.7 17 14.0 NW 7 15 4 8 1015.4 - 0.0
22/12:00pm 30.2 26.9 2.5 17 13.8 ENE 9 17 5 9 1016.1 1016.0 0.0
22/11:30am 29.9 26.5 3.8 19 13.3 NE 11 20 6 11 1016.6 - 0.0
22/11:00am 29.8 25.2 3.7 19 13.3 ENE 17 28 9 15 1017.0 - 0.0
22/10:30am 29.4 24.6 4.8 21 12.7 ENE 19 26 10 14 1017.2 - 0.0
22/10:00am 28.1 22.9 3.7 21 12.3 NE 20 26 11 14 1017.4 - 0.0
22/09:30am 27.1 21.8 2.9 21 11.9 NE 20 26 11 14 1017.6 - 0.0
22/09:00am 25.5 20.4 2.9 23 11.0 NE 19 24 10 13 1017.7 1017.6 0.0
22/08:30am 23.2 18.4 2.7 26 9.8 NE 17 24 9 13 1017.6 - 0.0
22/08:00am 20.7 16.4 3.4 32 8.2 NE 15 19 8 10 1017.5 - 0.0
22/07:30am 18.0 14.0 2.7 36 7.0 NE 13 17 7 9 1017.2 - 0.0
22/07:00am 15.9 12.0 3.4 43 5.7 NE 13 17 7 9 1017.2 - 0.0
22/06:30am 14.1 10.3 2.0 44 5.3 ENE 11 13 6 7 1016.8 - 0.0
22/06:00am 13.7 9.9 2.0 45 5.1 E 11 13 6 7 1016.4 1016.3 0.0
22/05:30am 13.9 9.8 2.2 45 5.1 NE 13 15 7 8 1016.0 - 0.0
22/05:00am 15.1 11.8 2.6 43 5.6 ENE 9 11 5 6 1015.8 - 0.0
22/04:30am 16.2 12.6 2.9 41 6.0 NE 11 13 6 7 1015.7 - 0.0
22/04:00am 16.7 12.7 2.7 39 6.4 ENE 13 15 7 8 1015.6 - 0.0
22/03:30am 16.8 13.2 2.8 39 6.4 NE 11 13 6 7 1015.6 - 0.0
22/03:00am 16.0 12.0 2.8 41 6.0 ENE 13 13 7 7 1015.8 1015.6 0.0
22/02:30am 16.1 12.8 2.5 40 6.1 ENE 9 11 5 6 1016.0 - 0.0
22/02:00am 17.0 13.3 2.6 38 6.5 ENE 11 11 6 6 1016.2 - 0.0
22/01:30am 16.9 13.2 2.5 38 6.5 ENE 11 11 6 6 1016.3 - 0.0
22/01:00am 17.9 14.2 2.6 36 7.0 ENE 11 13 6 7 1016.3 - 0.0
22/12:30am 17.8 14.1 2.5 36 7.0 ENE 11 13 6 7 1016.5 - 0.0
22/12:00am 18.6 15.4 2.9 35 7.3 ENE 9 9 5 5 1016.6 1016.5 0.0
 
Date/Time
CST
Temp
°C
App
Temp
°C
Dew
Point
Rel
Hum
%
Delta-T
°C
Wind Press
QNH
hPa
Press
MSL
hPa
Rain
since 9 am
mm
Dir
 
Spd
km/h
Gust
km/h
Spd
kts
Gust
kts
21/11:30pm 19.8 16.9 2.6 32 8.0 ENE 7 9 4 5 1016.7 - 0.0
21/11:00pm 19.7 16.1 3.0 33 7.8 ENE 11 15 6 8 1016.6 - 0.0
21/10:30pm 21.0 17.9 3.7 32 8.3 ENE 9 11 5 6 1016.5 - 0.0
21/10:00pm 20.7 17.5 3.0 31 8.4 NE 9 13 5 7 1016.5 - 0.0
21/09:30pm 21.7 17.9 3.9 31 8.6 NE 13 17 7 9 1016.5 - 0.0
21/09:00pm 21.9 18.8 3.6 30 8.8 ENE 9 11 5 6 1016.7 1016.6 0.0
21/08:30pm 21.9 17.9 3.1 29 9.0 ENE 13 17 7 9 1016.7 - 0.0
21/08:00pm 22.6 19.5 3.7 29 9.2 ENE 9 11 5 6 1016.6 - 0.0
21/07:30pm 23.2 19.7 3.7 28 9.5 ENE 11 11 6 6 1016.5 - 0.0
21/07:00pm 23.7 20.2 3.6 27 9.8 ENE 11 11 6 6 1016.3 - 0.0
21/06:30pm 24.9 21.5 4.1 26 10.3 ENE 11 13 6 7 1016.1 - 0.0
21/06:00pm 26.4 23.4 4.2 24 11.1 E 9 11 5 6 1015.9 1015.7 0.0
21/05:30pm 28.4 24.6 4.0 21 12.4 E 13 19 7 10 1015.5 - 0.0
21/05:00pm 29.2 25.5 4.6 21 12.7 E 13 19 7 10 1015.1 - 0.0
21/04:30pm 29.8 25.7 4.4 20 13.1 ENE 15 22 8 12 1015.1 - 0.0
21/04:00pm 30.0 26.3 4.6 20 13.1 E 13 22 7 12 1015.3 - 0.0
21/03:30pm 29.8 26.5 4.4 20 13.1 SSE 11 20 6 11 1015.4 - 0.0
21/03:00pm 30.0 27.8 5.3 21 12.9 SE 6 13 3 7 1015.5 1015.3 0.0
21/02:30pm 29.7 26.0 4.4 20 13.0 ENE 13 20 7 11 1015.7 - 0.0
21/02:00pm 29.4 25.8 4.8 21 12.7 SE 13 20 7 11 1016.0 - 0.0
21/01:30pm 29.7 27.0 5.7 22 12.6 ESE 9 20 5 11 1016.3 - 0.0
21/01:00pm 29.7 26.4 6.4 23 12.4 ESE 13 20 7 11 1016.7 - 0.0
21/12:30pm 29.2 25.9 6.6 24 12.0 E 13 20 7 11 1017.2 - 0.0
21/12:00pm 28.5 24.4 6.0 24 11.8 E 17 28 9 15 1017.7 1017.6 0.0
21/11:30am 29.2 25.2 6.6 24 12.0 E 17 22 9 12 1018.3 - 0.0
21/11:00am 27.9 24.5 6.1 25 11.4 E 13 20 7 11 1018.8 - 0.0
21/10:30am 27.9 24.5 6.1 25 11.4 ENE 13 19 7 10 1019.0 - 0.0
21/10:00am 26.9 22.8 6.3 27 10.8 ENE 17 20 9 11 1019.2 - 0.0
21/09:30am 26.0 21.5 6.1 28 10.3 ENE 19 22 10 12 1019.2 - 0.0
21/09:00am 24.4 19.9 6.2 31 9.3 ENE 19 22 10 12 1019.4 1019.3 0.0
21/08:30am 22.8 18.7 6.1 34 8.5 ENE 17 20 9 11 1019.3 - 0.0
21/08:00am 20.8 17.0 6.0 38 7.4 ENE 15 19 8 10 1019.2 - 0.0
21/07:30am 17.7 14.6 5.6 45 5.9 ENE 11 17 6 9 1019.0 - 0.0
21/07:00am 16.1 13.0 5.4 49 5.1 ENE 11 13 6 7 1019.0 - 0.0
21/06:30am 15.5 12.4 5.4 51 4.8 NE 11 13 6 7 1018.7 - 0.0
21/06:00am 15.4 12.2 5.3 51 4.8 NE 11 13 6 7 1018.4 1018.3 0.0
21/05:30am 15.6 12.2 5.8 52 4.7 NE 13 13 7 7 1018.2 - 0.0
21/05:00am 14.8 11.5 4.8 51 4.7 NE 11 13 6 7 1018.0 - 0.0
21/04:30am 15.8 12.3 5.4 50 5.0 ENE 13 13 7 7 1017.6 - 0.0
21/04:00am 16.1 13.0 5.4 49 5.1 NE 11 13 6 7 1017.4 - 0.0
21/03:30am 16.5 13.4 5.5 48 5.3 NE 11 13 6 7 1017.3 - 0.0
21/03:00am 16.5 13.3 5.2 47 5.4 NE 11 13 6 7 1017.0 1016.9 0.0
21/02:30am 16.9 13.4 5.5 47 5.5 NE 13 13 7 7 1017.1 - 0.0
21/02:00am 17.4 14.0 5.7 46 5.7 NE 13 15 7 8 1017.3 - 0.0
21/01:30am 18.0 15.0 5.9 45 5.9 NE 11 15 6 8 1017.5 - 0.0
21/01:00am 17.6 15.0 5.9 46 5.7 ENE 9 11 5 6 1017.6 - 0.0
21/12:30am 18.3 15.8 6.5 46 5.9 E 9 11 5 6 1017.6 - 0.0
21/12:00am 19.1 16.6 6.6 44 6.2 E 9 11 5 6 1017.6 1017.5 0.0
 
Date/Time
CST
Temp
°C
App
Temp
°C
Dew
Point
Rel
Hum
%
Delta-T
°C
Wind Press
QNH
hPa
Press
MSL
hPa
Rain
since 9 am
mm
Dir
 
Spd
km/h
Gust
km/h
Spd
kts
Gust
kts
20/11:30pm 19.4 17.9 6.8 44 6.3 SE 4 6 2 3 1017.6 - 0.0
20/11:00pm 19.6 17.7 7.4 45 6.2 ESE 7 9 4 5 1017.7 - 0.0
20/10:30pm 19.3 18.6 6.8 44 6.3 CALM 0 0 0 0 1017.9 - 0.0

Other Formats:

Comma delimited format used in spreadsheet applications
http://www.bom.gov.au/fwo/IDS60801/IDS60801.95481.axf

JavaScript Object Notation format (JSON) in row-major order
http://www.bom.gov.au/fwo/IDS60801/IDS60801.95481.json